Terminal Aerodrome Forecast
Issued by NWS

Home | Current Version | Previous Version | Graphics & Text | Print | Product List | Glossary On
Versions: 1 2 3 4 5 6 7 8 9 10 11 12 13 14 15 16 17 18 19 20 21
000
FTUS43 KUNR 192222 AAA
TAFGCC
TAF AMD
KGCC 192222Z 1922/2018 36013KT 2SM -SN SCT011 OVC020
     FM200600 34006KT P6SM OVC030
     FM201200 30006KT P6SM OVC050
     FM201700 26005KT P6SM OVC250=

USA.gov is the U.S. government's official web portal to all federal, state and local government web resources and services.